• Join FlightAware (Why Join?)
  • Login
  • US Flag 
03:58PM EST


 

Airport Tracker/Info


-or-


 

Live Flight TrackerFlight Track Log ✈ CHQ4999 ✈ 26-Apr-2013 ✈ KBOS - KCLE

Flight Track Log - Related Links

Times and Time Zones

All times are in EDT time to prevent confusion due to time zone crossing. See the CHQ4999 flight status page for this flight to view local times or setup timezone preferences in your user account.

Time Position Orientation Groundspeed Altitude Reporting Facility
EDT Latitude Longitude Course Direction KTS MPH feet Rate Location/Type
06:13AM 42.3667 -70.9833 300° West 156 180 800  Level KA90
06:14AM 42.3667 -70.9500 90° East 142 163 1,900 1,980 Climbing KA90
06:15AM 42.3833 -70.8833 71° East 193 222 3,800 1,740 Climbing KA90
06:16AM 42.5352 -70.8000 North  Level FlightAware Approximate
06:16AM 42.3950 -70.8122 77° East 238 274 5,300  Level Boston Center
06:17AM 42.6050 -70.8838 308° West  Level FlightAware Approximate
06:17AM 42.4569 -70.7656 29° Northeast 231 266 7,500  Level Boston Center
06:18AM 42.6590 -70.9947 300° West  Level FlightAware Approximate
06:18AM 42.5242 -70.8089 335° Northwest 204 235 9,500  Level Boston Center
06:19AM 42.7073 -71.1108 300° West  Level FlightAware Approximate
06:19AM 42.5669 -70.8953 304° West 220 253 11,500  Level Boston Center
06:20AM 42.6161 -70.9814 308° West 284 327 12,900 1,200 Climbing Boston Center
06:21AM 42.6758 -71.0875 307° West 315 362 14,000 840 Climbing Boston Center
06:22AM 42.7083 -71.1942 293° West 332 382 14,600 1,320 Climbing Boston Center
06:23AM 42.7242 -71.3322 279° West 343 395 16,700 1,740 Climbing Boston Center
06:24AM 42.7358 -71.4422 278° West 338 389 18,100 1,140 Climbing Boston Center
06:25AM 42.7492 -71.5636 279° West 331 381 19,000 1,140 Climbing Boston Center
06:26AM 42.7628 -71.6936 278° West 336 387 20,400 1,380 Climbing Boston Center
06:27AM 42.7781 -71.8178 280° West 336 387 21,800 1,380 Climbing Boston Center
06:28AM 42.7911 -71.9450 278° West 336 387 23,200 1,380 Climbing Boston Center
06:29AM 42.8042 -72.0722 278° West 336 387 24,600 1,200 Climbing Boston Center
06:30AM 42.8192 -72.1967 279° West 341 392 25,700 1,080 Climbing Boston Center
06:31AM 42.8400 -72.3381 281° West 341 392 26,800 1,020 Climbing Boston Center
06:32AM 42.8506 -72.4683 276° West 347 399 27,800 960 Climbing Boston Center
06:33AM 42.8650 -72.5986 279° West 354 407 28,800 960 Climbing Boston Center
06:34AM 42.8711 -72.7233 274° West 349 402 29,800 960 Climbing Boston Center
06:35AM 42.8811 -72.8425 277° West 349 402 30,800 900 Climbing Boston Center
06:36AM 42.8953 -72.9786 278° West 354 407 31,800 1,020 Climbing Boston Center
06:37AM 42.9131 -73.1544 278° West 359 413 33,100 1,140 Climbing Boston Center
06:38AM 42.9267 -73.2908 278° West 365 420 34,100 900 Climbing Boston Center
06:39AM 42.9358 -73.4242 275° West 365 420 35,000 900 Climbing Boston Center
06:40AM 42.9472 -73.5547 277° West 365 420 35,900 480 Climbing Boston Center
06:41AM 42.9603 -73.6942 277° West 365 420 36,000  Climbing Boston Center
06:42AM 42.9733 -73.8392 277° West 377 434 36,000  Level Boston Center
06:43AM 42.9881 -73.9869 278° West 389 448 36,000  Level Boston Center
06:44AM 43.0006 -74.1322 277° West 394 453 36,000  Level Boston Center
06:45AM 43.0108 -74.2717 276° West 383 441 36,000  Level Boston Center
06:46AM 43.0231 -74.4111 277° West 383 441 36,000  Level Boston Center
06:47AM 43.0353 -74.5478 277° West 378 435 36,000  Level Boston Center
06:48AM 43.0472 -74.6875 277° West 373 429 36,000  Level Boston Center
06:49AM 43.0589 -74.8328 276° West 373 429 36,000  Level Boston Center
06:50AM 43.0703 -74.9839 276° West 386 444 36,000  Level Boston Center
06:51AM 43.0833 -75.1353 277° West 402 463 36,000 -660 Level Boston Center
06:52AM 43.0922 -75.2833 275° West 402 463 34,700 -1,440 Descending Boston Center
06:53AM 43.1036 -75.4092 277° West 397 457 33,200 -1,740 Descending Boston Center
06:54AM 43.1128 -75.5406 276° West 377 434 31,300 -1,620 Descending Boston Center
06:55AM 43.1239 -75.6606 277° West 344 396 30,000 -660 Descending Boston Center
06:56AM 43.1331 -75.7806 276° West 332 382 30,000 -780 Level Boston Center
06:57AM 43.1419 -75.9033 276° West 332 382 28,500 -1,500 Descending Boston Center
06:59AM 43.1347 -76.1161 267° West 308 354 26,000 -960 Descending Cleveland Center
07:00AM 43.1039 -76.2378 251° West 320 368 26,000  Level Cleveland Center
07:01AM 43.0711 -76.3622 250° West 338 389 26,000  Level Cleveland Center
07:02AM 43.0400 -76.4867 251° West 343 395 26,000  Level Cleveland Center
07:03AM 43.0067 -76.6081 249° West 343 395 26,000  Level Cleveland Center
07:04AM 42.9733 -76.7322 250° West 348 400 26,000  Level Cleveland Center
07:05AM 42.9400 -76.8564 250° West 353 406 26,000  Level Cleveland Center
07:06AM 42.9086 -76.9831 251° West 353 406 26,000  Level Cleveland Center
07:07AM 42.8683 -77.1014 245° Southwest 358 412 26,000  Level Cleveland Center
07:08AM 42.8178 -77.2233 241° Southwest 358 412 26,000 360 Level Cleveland Center
07:09AM 42.7689 -77.3361 239° Southwest 363 418 26,800 900 Climbing Cleveland Center
07:10AM 42.7200 -77.4517 240° Southwest 363 418 27,900 600 Climbing Cleveland Center
07:11AM 42.6731 -77.5642 240° Southwest 358 412 28,000  Climbing Cleveland Center
07:12AM 42.6236 -77.6767 239° Southwest 358 412 28,000  Level Cleveland Center
07:13AM 42.5725 -77.7919 239° Southwest 358 412 28,000  Level Cleveland Center
07:14AM 42.5289 -77.8953 240° Southwest 358 412 28,000  Level Cleveland Center
07:15AM 42.4794 -78.0100 240° Southwest 358 412 28,000  Level Cleveland Center
07:16AM 42.4300 -78.1244 240° Southwest 358 412 28,000  Level Cleveland Center
07:17AM 42.3800 -78.2389 239° Southwest 363 418 28,000  Level Cleveland Center
07:18AM 42.3283 -78.3531 239° Southwest 363 418 28,000  Level Cleveland Center
07:19AM 42.2783 -78.4672 239° Southwest 363 418 28,000  Level Cleveland Center
07:20AM 42.2281 -78.5811 239° Southwest 369 425 28,000  Level Cleveland Center
07:21AM 42.1758 -78.6975 239° Southwest 369 425 28,000  Level Cleveland Center
07:22AM 42.1444 -78.8161 250° West 358 412 28,000  Level Cleveland Center
07:23AM 42.1131 -78.9403 251° West 347 399 28,000  Level Cleveland Center
07:24AM 42.0814 -79.0669 251° West 352 405 28,000  Level Cleveland Center
07:25AM 42.0494 -79.1878 250° West 352 405 28,000  Level Cleveland Center
07:26AM 42.0175 -79.3114 251° West 352 405 28,000 -540 Level Cleveland Center
07:27AM 41.9833 -79.4378 250° West 352 405 27,000 -1,260 Descending Cleveland Center
07:28AM 41.9492 -79.5669 250° West 357 411 25,500 -1,560 Descending Cleveland Center
07:29AM 41.9108 -79.7125 251° West 378 435 23,900 -1,800 Descending Cleveland Center
07:30AM 41.8764 -79.8469 251° West 383 441 22,000 -1,920 Descending Cleveland Center
07:31AM 41.8417 -79.9756 250° West 383 441 20,100 -1,020 Descending Cleveland Center
07:32AM 41.8089 -80.1069 252° West 383 441 20,000 -60 Descending Cleveland Center
07:33AM 41.7719 -80.2353 249° West 383 441 20,000 -660 Level Cleveland Center
07:34AM 41.7347 -80.3689 250° West 383 441 18,700 -1,200 Descending Cleveland Center
07:35AM 41.7036 -80.4858 250° West 383 441 17,700 -1,320 Descending Cleveland Center
07:36AM 41.6703 -80.6053 250° West 356 410 16,100 -1,080 Descending Cleveland Center
07:37AM 41.6389 -80.7192 250° West 345 397 15,600 -1,020 Descending Cleveland Center
07:38AM 41.6053 -80.8414 250° West 346 398 14,100 -1,560 Descending Cleveland Center
07:39AM 41.5736 -80.9550 250° West 346 398 12,500 -1,740 Descending Cleveland Center
07:39AM 41.5547 -81.0242 250° West 320 368 11,400 -1,920 Descending Cleveland Center
07:40AM 41.5442 -81.0658 251° West 335 386 10,600 -1,260 Descending Cleveland Center
07:40AM 41.5375 -81.1572 264° West 303 349 10,000 -600 Descending Cleveland Center
07:41AM 41.5331 -81.1767 253° West 310 357 10,000 -240 Level Cleveland Center
07:41AM 41.5264 -81.2656 264° West 274 315 9,800 -840 Descending Cleveland Center
07:42AM 41.5219 -81.3292 265° West 243 280 8,800 -1,440 Descending Cleveland Center
07:43AM 41.5175 -81.3761 263° West 261 300 8,100 -1,620 Descending Cleveland Center
07:43AM 41.5150 -81.4233 266° West 240 276 7,200 -1,500 Descending Cleveland Center
07:44AM 41.5106 -81.4622 261° West 254 292 6,600 -1,500 Descending Cleveland Center
07:44AM 41.5081 -81.4981 265° West 237 273 5,900 -1,620 Descending Cleveland Center
07:45AM 41.4994 -81.5481 257° West 240 276 5,000 -1,560 Descending Cleveland Center
07:45AM 41.4864 -81.5892 247° West 225 259 4,200 -1,020 Descending Cleveland Center
07:46AM 41.4800 -81.6253 257° West 235 270 4,000 -480 Descending Cleveland Center
07:46AM 41.4775 -81.6583 264° West 208 239 3,800 -480 Descending Cleveland Center